Time;durP1;ratioP1;P1;durP2;ratioP2;P2;SDS_P1;SDS_P2;PMS_P1;PMS_P2;Temp;Humidity;BMP_temperature;BMP_pressure;BME280_temperature;BME280_humidity;BME280_pressure;Samples;Min_cycle;Max_cycle;Signal;HPM_P1;HPM_P2
2023/09/19 00:01:40;;;;;;;10.07;3.13;;;;;;;13.91;100.00;100628.97;5023490;28;20076;-68
2023/09/19 00:04:09;;;;;;;14.13;3.70;;;;;;;13.87;100.00;100629.28;5005781;28;20551;-68
2023/09/19 00:06:35;;;;;;;10.35;3.13;;;;;;;13.81;100.00;100625.22;5022739;28;20033;-68
2023/09/19 00:09:00;;;;;;;9.98;3.30;;;;;;;13.82;100.00;100626.94;5023978;28;20107;-68
2023/09/19 00:11:26;;;;;;;14.27;3.50;;;;;;;13.77;100.00;100634.41;5023753;28;20079;-69
2023/09/19 00:13:52;;;;;;;13.07;3.22;;;;;;;13.74;100.00;100631.94;5006636;28;20480;-69
2023/09/19 00:16:19;;;;;;;12.32;3.88;;;;;;;13.70;100.00;100635.78;5024899;28;20017;-69
2023/09/19 00:18:44;;;;;;;11.73;3.10;;;;;;;13.67;100.00;100630.66;5024289;28;20076;-69
2023/09/19 00:21:10;;;;;;;12.85;3.60;;;;;;;13.70;100.00;100636.63;5024327;28;20021;-69
2023/09/19 00:23:35;;;;;;;9.93;3.60;;;;;;;13.66;100.00;100642.31;5005454;28;20057;-69
2023/09/19 00:26:01;;;;;;;9.77;3.42;;;;;;;13.64;100.00;100644.22;5023897;28;20037;-69
2023/09/19 00:28:27;;;;;;;10.27;3.20;;;;;;;13.63;100.00;100648.72;5024602;28;20032;-69
2023/09/19 00:30:55;;;;;;;11.82;3.55;;;;;;;13.62;100.00;100654.16;5025342;28;20095;-70
2023/09/19 00:33:20;;;;;;;11.63;3.42;;;;;;;13.54;100.00;100645.78;5023985;28;20438;-69
2023/09/19 00:35:51;;;;;;;11.52;3.35;;;;;;;13.56;100.00;100651.91;5024309;28;20026;-69
2023/09/19 00:38:17;;;;;;;12.95;2.97;;;;;;;13.47;100.00;100656.03;5024330;28;20269;-70
2023/09/19 00:40:45;;;;;;;8.88;3.13;;;;;;;13.51;100.00;100652.22;5023620;28;20112;-70
2023/09/19 00:43:11;;;;;;;11.57;3.13;;;;;;;13.50;100.00;100654.97;5023315;28;20049;-69
2023/09/19 00:45:42;;;;;;;10.15;3.42;;;;;;;13.50;100.00;100657.66;5023140;28;20570;-70
2023/09/19 00:48:09;;;;;;;9.70;3.28;;;;;;;13.48;100.00;100662.25;5024733;28;20224;-69
2023/09/19 00:50:35;;;;;;;10.18;3.25;;;;;;;13.42;100.00;100663.53;5022535;28;20447;-69
2023/09/19 00:53:01;;;;;;;9.85;3.15;;;;;;;13.45;100.00;100671.31;5023707;28;20037;-69
2023/09/19 00:55:29;;;;;;;9.60;3.17;;;;;;;13.45;100.00;100672.16;5022673;28;20021;-69
2023/09/19 00:57:56;;;;;;;9.43;2.70;;;;;;;13.47;100.00;100669.41;5024214;28;20500;-69
2023/09/19 01:00:23;;;;;;;9.98;3.42;;;;;;;13.46;100.00;100675.72;5023809;28;20025;-70
2023/09/19 01:02:48;;;;;;;10.35;3.53;;;;;;;13.44;100.00;100680.31;5021662;28;20036;-69
2023/09/19 01:05:14;;;;;;;10.57;3.20;;;;;;;13.41;100.00;100689.38;5005653;28;20025;-69
2023/09/19 01:07:44;;;;;;;11.13;2.92;;;;;;;13.41;100.00;100691.19;5023064;28;20017;-69
2023/09/19 01:10:13;;;;;;;9.82;3.47;;;;;;;13.36;100.00;100694.16;5022007;28;20029;-70
2023/09/19 01:13:10;;;;;;;9.93;3.45;;;;;;;13.38;100.00;100699.44;5020222;28;20135;-69
2023/09/19 01:15:46;;;;;;;14.15;3.47;;;;;;;13.32;100.00;100698.00;5023629;28;20037;-69
2023/09/19 01:18:45;;;;;;;13.18;4.13;;;;;;;13.32;100.00;100708.69;5013870;28;20037;-68
2023/09/19 01:21:28;;;;;;;11.85;3.53;;;;;;;13.34;100.00;100706.78;5022590;28;20482;-68
2023/09/19 01:24:07;;;;;;;13.15;2.95;;;;;;;13.28;100.00;100707.16;5023160;28;20045;-68
2023/09/19 01:27:00;;;;;;;9.55;3.30;;;;;;;13.30;100.00;100712.44;5022183;28;20034;-68
2023/09/19 01:29:47;;;;;;;10.23;3.28;;;;;;;13.25;100.00;100712.72;5022123;28;20034;-68
2023/09/19 01:32:16;;;;;;;10.75;3.22;;;;;;;13.26;100.00;100710.91;5022602;28;20464;-68
2023/09/19 01:34:48;;;;;;;14.05;3.45;;;;;;;13.23;100.00;100708.44;5022825;28;20482;-69
2023/09/19 01:37:20;;;;;;;7.88;3.05;;;;;;;13.18;100.00;100714.91;5022177;28;20104;-69
2023/09/19 01:39:52;;;;;;;9.98;2.88;;;;;;;13.15;100.00;100719.56;5022410;28;20049;-69
2023/09/19 01:42:30;;;;;;;12.48;3.15;;;;;;;13.17;100.00;100715.84;5021152;28;20037;-69
2023/09/19 01:45:12;;;;;;;9.57;3.40;;;;;;;13.14;100.00;100725.88;5022795;28;20036;-69
2023/09/19 01:47:46;;;;;;;10.85;3.20;;;;;;;13.14;100.00;100715.19;5022150;28;20041;-69
2023/09/19 01:50:36;;;;;;;12.85;3.72;;;;;;;13.12;100.00;100727.78;5003602;28;20120;-70
2023/09/19 01:53:21;;;;;;;11.00;3.50;;;;;;;13.14;100.00;100716.03;5021926;28;20033;-69
2023/09/19 01:55:49;;;;;;;8.57;3.00;;;;;;;13.13;100.00;100724.16;5022110;28;20025;-69
2023/09/19 01:58:22;;;;;;;10.13;3.45;;;;;;;13.09;100.00;100733.34;5021572;28;20071;-68
2023/09/19 02:00:50;;;;;;;10.85;3.28;;;;;;;13.12;100.00;100727.78;5021352;28;20446;-69
2023/09/19 02:03:16;;;;;;;13.35;3.38;;;;;;;13.09;100.00;100722.66;5021855;28;20108;-69
2023/09/19 02:05:49;;;;;;;8.90;3.10;;;;;;;13.08;100.00;100715.56;5021849;28;20040;-69
2023/09/19 02:08:17;;;;;;;10.38;3.00;;;;;;;13.07;100.00;100727.22;5021848;28;20048;-69
2023/09/19 02:10:42;;;;;;;12.35;4.25;;;;;;;13.05;100.00;100721.13;5020985;28;20245;-70
2023/09/19 02:13:07;;;;;;;10.60;2.95;;;;;;;13.05;100.00;100724.66;4998539;28;20530;-70
2023/09/19 02:15:34;;;;;;;9.07;2.97;;;;;;;13.05;100.00;100721.97;5022545;28;20113;-69
2023/09/19 02:17:59;;;;;;;9.35;2.80;;;;;;;12.97;100.00;100721.59;4994875;28;20065;-68
2023/09/19 02:20:26;;;;;;;10.95;3.45;;;;;;;12.96;100.00;100723.41;5022317;28;20049;-68
2023/09/19 02:22:52;;;;;;;8.90;3.03;;;;;;;12.93;100.00;100725.41;5021571;28;20033;-69
2023/09/19 02:25:17;;;;;;;8.93;2.90;;;;;;;12.90;100.00;100721.09;5021182;28;20045;-70
2023/09/19 02:27:43;;;;;;;11.55;3.20;;;;;;;12.87;100.00;100715.09;5020077;28;20037;-70
2023/09/19 02:30:09;;;;;;;11.70;2.92;;;;;;;12.83;100.00;100718.91;5021703;28;20032;-70
2023/09/19 02:32:38;;;;;;;11.52;3.30;;;;;;;12.86;100.00;100729.41;5020998;28;20076;-69
2023/09/19 02:35:04;;;;;;;9.60;3.15;;;;;;;12.87;100.00;100729.31;5022517;28;20034;-70
2023/09/19 02:37:31;;;;;;;9.05;3.00;;;;;;;12.79;100.00;100728.06;5002732;28;20531;-70
2023/09/19 02:39:56;;;;;;;7.43;2.70;;;;;;;12.78;100.00;100729.03;5022385;28;20079;-70
2023/09/19 02:42:22;;;;;;;6.70;2.63;;;;;;;12.77;100.00;100738.84;5020529;28;20106;-70
2023/09/19 02:44:48;;;;;;;8.57;3.05;;;;;;;12.76;100.00;100736.28;5022400;28;20025;-70
2023/09/19 02:47:15;;;;;;;11.90;3.08;;;;;;;12.73;100.00;100737.31;5018763;28;20033;-70
2023/09/19 02:49:40;;;;;;;7.65;2.60;;;;;;;12.74;100.00;100731.03;5021304;28;20064;-70
2023/09/19 02:52:07;;;;;;;9.95;3.13;;;;;;;12.70;100.00;100733.03;5020880;28;20484;-70
2023/09/19 02:54:32;;;;;;;6.85;2.63;;;;;;;12.71;100.00;100740.09;5022205;28;20029;-70
2023/09/19 02:56:58;;;;;;;9.10;2.88;;;;;;;12.68;100.00;100734.09;5000049;28;20029;-69
2023/09/19 02:59:24;;;;;;;8.07;2.55;;;;;;;12.65;100.00;100726.25;5017375;28;20029;-71
2023/09/19 03:01:50;;;;;;;8.10;3.03;;;;;;;12.68;100.00;100745.63;5018518;28;20025;-70
2023/09/19 03:04:19;;;;;;;8.85;2.53;;;;;;;12.69;100.00;100743.81;5021418;28;20424;-70
2023/09/19 03:06:45;;;;;;;7.57;2.72;;;;;;;12.66;100.00;100755.53;5019943;28;20124;-70
2023/09/19 03:09:11;;;;;;;9.90;2.75;;;;;;;12.67;100.00;100753.75;5020964;28;20071;-71
2023/09/19 03:11:37;;;;;;;7.38;2.55;;;;;;;12.64;100.00;100748.56;5021173;28;20673;-70
2023/09/19 03:14:04;;;;;;;7.30;2.97;;;;;;;12.64;100.00;100748.56;5020387;28;20056;-70
2023/09/19 03:16:29;;;;;;;7.57;3.00;;;;;;;12.58;100.00;100749.81;5021155;28;20038;-69
2023/09/19 03:18:55;;;;;;;8.25;2.88;;;;;;;12.62;100.00;100750.47;5021126;28;20034;-69
2023/09/19 03:21:21;;;;;;;9.93;2.85;;;;;;;12.58;100.00;100749.81;5003022;28;20026;-69
2023/09/19 03:23:47;;;;;;;7.82;2.90;;;;;;;12.58;100.00;100740.94;5020771;28;20129;-69
2023/09/19 03:26:14;;;;;;;11.35;3.25;;;;;;;12.57;100.00;100742.75;5020817;28;20120;-69
2023/09/19 03:28:40;;;;;;;12.52;3.50;;;;;;;12.58;100.00;100743.59;5019087;28;20546;-69
2023/09/19 03:31:06;;;;;;;9.63;3.13;;;;;;;12.56;100.00;100751.72;5019602;28;20105;-69
2023/09/19 03:33:33;;;;;;;5.80;2.78;;;;;;;12.58;100.00;100744.47;5020314;28;20108;-69
2023/09/19 03:36:00;;;;;;;11.52;3.78;;;;;;;12.56;100.00;100733.03;5021344;28;20030;-69
2023/09/19 03:38:26;;;;;;;5.90;2.58;;;;;;;12.59;100.00;100738.19;5020320;28;20064;-69
2023/09/19 03:40:52;;;;;;;11.98;3.45;;;;;;;12.64;100.00;100741.41;5019899;28;20056;-70
2023/09/19 03:43:17;;;;;;;9.68;3.22;;;;;;;12.64;100.00;100735.22;5020374;28;20483;-70
2023/09/19 03:45:43;;;;;;;12.68;3.50;;;;;;;12.65;100.00;100734.25;5020982;28;20475;-70
2023/09/19 03:48:12;;;;;;;8.07;2.92;;;;;;;12.61;100.00;100738.94;5008247;28;20037;-70
2023/09/19 03:50:37;;;;;;;8.95;2.80;;;;;;;12.59;100.00;100734.66;5020087;28;20798;-70
2023/09/19 03:53:03;;;;;;;9.85;2.90;;;;;;;12.57;100.00;100732.06;5011906;28;20036;-70
2023/09/19 03:55:30;;;;;;;10.50;3.17;;;;;;;12.56;100.00;100732.16;4988763;28;20072;-69
2023/09/19 03:57:56;;;;;;;6.40;2.78;;;;;;;12.56;100.00;100729.50;5014777;28;20052;-69
2023/09/19 04:00:23;;;;;;;6.30;2.70;;;;;;;12.57;100.00;100732.06;5020081;28;20072;-69
2023/09/19 04:02:49;;;;;;;10.18;3.00;;;;;;;12.60;100.00;100733.69;5021777;28;20036;-70
2023/09/19 04:05:14;;;;;;;9.70;3.25;;;;;;;12.60;100.00;100731.03;5023771;28;20105;-69
2023/09/19 04:07:40;;;;;;;11.13;3.00;;;;;;;12.61;100.00;100732.72;5024522;28;20033;-69
2023/09/19 04:10:06;;;;;;;8.43;3.15;;;;;;;12.60;100.00;100733.69;5024150;28;20487;-68
2023/09/19 04:12:32;;;;;;;11.15;2.95;;;;;;;12.61;100.00;100733.59;5023798;28;20133;-69
2023/09/19 04:14:58;;;;;;;9.18;3.20;;;;;;;12.65;100.00;100740.47;5007474;28;20045;-69
2023/09/19 04:17:23;;;;;;;9.30;3.55;;;;;;;12.68;100.00;100736.75;5024786;28;20139;-69
2023/09/19 04:19:49;;;;;;;9.30;3.20;;;;;;;12.65;100.00;100728.94;5025615;28;20855;-69
2023/09/19 04:22:14;;;;;;;9.00;3.30;;;;;;;12.66;100.00;100730.63;5024738;28;20083;-69
2023/09/19 04:24:40;;;;;;;12.13;3.20;;;;;;;12.64;100.00;100736.09;5024484;28;20057;-69
2023/09/19 04:27:05;;;;;;;7.63;3.08;;;;;;;12.64;100.00;100741.41;5023362;28;20293;-70
2023/09/19 04:29:31;;;;;;;11.88;3.55;;;;;;;12.62;100.00;100751.34;5024977;28;20120;-69
2023/09/19 04:31:57;;;;;;;7.03;3.28;;;;;;;12.65;100.00;100753.81;5024975;28;20261;-69
2023/09/19 04:34:24;;;;;;;9.57;3.05;;;;;;;12.74;100.00;100754.19;5025137;28;20040;-69
2023/09/19 04:36:49;;;;;;;11.10;3.80;;;;;;;12.75;100.00;100762.13;5024327;28;20484;-69
2023/09/19 04:39:15;;;;;;;9.02;2.97;;;;;;;12.75;100.00;100764.81;5024801;28;20039;-69
2023/09/19 04:41:41;;;;;;;7.88;2.88;;;;;;;12.76;100.00;100771.88;5024641;28;20025;-69
2023/09/19 04:44:07;;;;;;;9.85;3.70;;;;;;;12.72;100.00;100791.69;5023742;28;20025;-69
2023/09/19 04:46:33;;;;;;;8.77;3.33;;;;;;;12.74;100.00;100797.78;5023624;28;20487;-69
2023/09/19 04:48:59;;;;;;;8.02;3.17;;;;;;;12.74;100.00;100789.78;5023840;28;20048;-69
2023/09/19 04:51:25;;;;;;;11.13;3.53;;;;;;;12.83;100.00;100799.94;5023499;28;20112;-70
2023/09/19 04:53:50;;;;;;;9.65;2.90;;;;;;;12.88;100.00;100789.81;5022957;28;20911;-69
2023/09/19 04:56:16;;;;;;;11.90;3.45;;;;;;;12.94;100.00;100805.44;5022709;28;20048;-69
2023/09/19 04:58:41;;;;;;;11.15;3.22;;;;;;;12.98;100.00;100802.59;5022069;28;20029;-69
2023/09/19 05:01:11;;;;;;;10.65;2.90;;;;;;;12.99;100.00;100804.31;5019374;28;20021;-69
2023/09/19 05:03:36;;;;;;;9.45;2.78;;;;;;;13.04;100.00;100812.91;5024258;28;20188;-70
2023/09/19 05:06:02;;;;;;;9.95;3.17;;;;;;;13.07;100.00;100805.56;5024306;28;20112;-70
2023/09/19 05:08:27;;;;;;;11.15;3.85;;;;;;;13.08;100.00;100811.75;5022164;28;20032;-69
2023/09/19 05:10:53;;;;;;;10.88;3.67;;;;;;;13.12;100.00;100815.94;5022573;28;20029;-69
2023/09/19 05:13:18;;;;;;;8.82;3.70;;;;;;;13.10;100.00;100810.72;5004459;28;20035;-70
2023/09/19 05:15:44;;;;;;;11.65;3.92;;;;;;;13.03;100.00;100813.84;5018902;28;20083;-70
2023/09/19 05:18:10;;;;;;;11.18;3.42;;;;;;;12.99;100.00;100802.50;5019919;28;20150;-69
2023/09/19 05:20:37;;;;;;;11.80;3.40;;;;;;;12.96;100.00;100814.25;5017520;28;20059;-69
2023/09/19 05:23:07;;;;;;;10.45;3.75;;;;;;;12.90;100.00;100819.09;5021883;28;20212;-68
2023/09/19 05:25:36;;;;;;;9.70;3.22;;;;;;;12.84;100.00;100803.44;5020670;28;20056;-72
2023/09/19 05:28:04;;;;;;;12.55;3.38;;;;;;;12.87;100.00;100822.78;5020070;28;20439;-70
2023/09/19 05:30:29;;;;;;;11.52;3.35;;;;;;;12.82;100.00;100821.38;5002607;28;20033;-72
2023/09/19 05:32:58;;;;;;;7.55;3.28;;;;;;;12.84;100.00;100838.19;5023458;28;20500;-72
2023/09/19 05:35:24;;;;;;;7.38;2.80;;;;;;;12.84;100.00;100820.34;5005063;28;20083;-72
2023/09/19 05:37:51;;;;;;;12.85;3.42;;;;;;;12.83;100.00;100823.06;5024611;28;20029;-72
2023/09/19 05:40:19;;;;;;;12.15;3.35;;;;;;;12.80;100.00;100816.13;5023347;28;20034;-69
2023/09/19 05:42:45;;;;;;;9.43;2.83;;;;;;;12.81;100.00;100823.19;5023332;28;20037;-71
2023/09/19 05:45:12;;;;;;;10.80;3.17;;;;;;;12.80;100.00;100820.63;5022461;28;20029;-71
2023/09/19 05:47:45;;;;;;;10.77;3.03;;;;;;;12.83;100.00;100825.75;5023793;28;20551;-74
2023/09/19 05:50:11;;;;;;;9.65;3.00;;;;;;;12.81;100.00;100836.53;5004774;28;20045;-70
2023/09/19 05:52:37;;;;;;;11.95;3.55;;;;;;;12.83;100.00;100823.06;5024180;28;20054;-71
2023/09/19 05:55:07;;;;;;;11.20;3.70;;;;;;;12.83;100.00;100826.63;5022627;28;20033;-72
2023/09/19 05:57:37;;;;;;;8.73;3.05;;;;;;;12.82;100.00;100824.91;5019736;28;20490;-72
2023/09/19 06:00:08;;;;;;;8.55;3.13;;;;;;;12.83;100.00;100823.97;5018481;28;20029;-72
2023/09/19 06:02:34;;;;;;;10.73;3.22;;;;;;;12.83;100.00;100818.63;5022121;28;20277;-71
2023/09/19 06:04:59;;;;;;;11.82;3.17;;;;;;;12.86;100.00;100817.56;5022572;28;20431;-72
2023/09/19 06:07:26;;;;;;;8.80;3.00;;;;;;;12.92;100.00;100817.19;5015035;28;20068;-71
2023/09/19 06:09:53;;;;;;;10.10;3.15;;;;;;;12.93;100.00;100821.59;5021642;28;20345;-71
2023/09/19 06:12:19;;;;;;;14.88;3.85;;;;;;;12.94;100.00;100816.13;5021184;28;20021;-70
2023/09/19 06:14:45;;;;;;;14.55;3.25;;;;;;;13.00;100.00;100822.06;5021415;28;20029;-71
2023/09/19 06:17:10;;;;;;;8.70;2.90;;;;;;;13.02;100.00;100836.19;5021126;28;20527;-71
2023/09/19 06:19:36;;;;;;;8.93;3.30;;;;;;;13.05;100.00;100825.31;5020027;28;20538;-70
2023/09/19 06:22:05;;;;;;;9.80;3.53;;;;;;;13.06;100.00;100829.72;5021961;28;20048;-71
2023/09/19 06:24:30;;;;;;;10.50;3.10;;;;;;;13.10;100.00;100831.25;5024148;28;20053;-71
2023/09/19 06:26:56;;;;;;;10.90;3.38;;;;;;;13.15;100.00;100826.47;5023475;28;20120;-71
2023/09/19 06:29:22;;;;;;;10.43;3.38;;;;;;;13.19;100.00;100836.00;5025008;28;20440;-71
2023/09/19 06:31:48;;;;;;;8.88;3.55;;;;;;;13.21;100.00;100832.31;5023477;28;20025;-72
2023/09/19 06:34:18;;;;;;;11.32;3.70;;;;;;;13.26;100.00;100840.06;5023466;28;20036;-73
2023/09/19 06:36:44;;;;;;;11.13;3.30;;;;;;;13.32;100.00;100847.69;5022643;28;20034;-72
2023/09/19 06:39:10;;;;;;;10.90;3.88;;;;;;;13.36;100.00;100843.88;5022645;28;20033;-71
2023/09/19 06:41:39;;;;;;;11.10;3.20;;;;;;;13.41;100.00;100847.09;5022019;28;20083;-74
2023/09/19 06:44:05;;;;;;;11.25;3.45;;;;;;;13.42;100.00;100856.00;5005101;28;20042;-72
2023/09/19 06:46:32;;;;;;;10.65;3.20;;;;;;;13.45;100.00;100851.31;4997896;28;20037;-72
2023/09/19 06:48:58;;;;;;;9.13;3.40;;;;;;;13.54;100.00;100855.22;5023682;28;20144;-72
2023/09/19 06:51:23;;;;;;;10.27;4.10;;;;;;;13.58;100.00;100854.06;5021193;28;20104;-72
2023/09/19 06:53:49;;;;;;;12.48;3.80;;;;;;;13.63;100.00;100864.50;5002944;28;20025;-73
2023/09/19 06:56:14;;;;;;;10.30;3.17;;;;;;;13.69;100.00;100861.44;5002852;28;20117;-71
2023/09/19 06:58:39;;;;;;;15.93;3.75;;;;;;;13.79;100.00;100856.34;5017891;28;20033;-72
2023/09/19 07:01:05;;;;;;;11.73;3.28;;;;;;;13.85;100.00;100861.31;5019220;28;20025;-70
2023/09/19 07:03:33;;;;;;;13.88;3.55;;;;;;;13.90;100.00;100864.53;5020453;28;20045;-70
2023/09/19 07:05:59;;;;;;;10.13;3.33;;;;;;;13.92;100.00;100863.50;5020809;28;20076;-69
2023/09/19 07:08:24;;;;;;;11.75;3.75;;;;;;;13.93;100.00;100867.88;5019802;28;20057;-71
2023/09/19 07:10:54;;;;;;;10.65;2.97;;;;;;;13.94;100.00;100866.91;5020585;28;20048;-69
2023/09/19 07:13:19;;;;;;;9.82;2.97;;;;;;;13.95;100.00;100851.72;5020105;28;20242;-70
2023/09/19 07:15:49;;;;;;;8.48;3.50;;;;;;;14.02;100.00;100854.88;5001102;28;20416;-70
2023/09/19 07:18:16;;;;;;;10.48;3.05;;;;;;;14.07;100.00;100858.09;5005162;28;20057;-69
2023/09/19 07:20:49;;;;;;;9.85;3.30;;;;;;;14.14;100.00;100852.25;5000261;28;20600;-70
2023/09/19 07:23:16;;;;;;;10.07;2.80;;;;;;;14.29;100.00;100861.06;5020851;28;20096;-70
2023/09/19 07:25:41;;;;;;;11.07;2.80;;;;;;;14.40;100.00;100874.63;5021626;28;20134;-71
2023/09/19 07:28:07;;;;;;;9.18;2.95;;;;;;;14.39;100.00;100867.56;5019874;28;20041;-71
2023/09/19 07:30:37;;;;;;;12.63;3.03;;;;;;;14.48;100.00;100870.59;5021468;28;20041;-71
2023/09/19 07:33:05;;;;;;;8.43;3.00;;;;;;;14.57;100.00;100870.00;5004702;28;20430;-70
2023/09/19 07:35:31;;;;;;;10.38;2.80;;;;;;;14.60;100.00;100864.44;5021326;28;20104;-69
2023/09/19 07:37:58;;;;;;;9.50;3.38;;;;;;;14.66;100.00;100859.50;5018397;28;20013;-69
2023/09/19 07:40:24;;;;;;;10.45;3.05;;;;;;;14.66;100.00;100864.88;5023075;28;20458;-70
2023/09/19 07:42:50;;;;;;;10.10;3.50;;;;;;;14.82;100.00;100859.31;5026272;28;20176;-70
2023/09/19 07:45:16;;;;;;;8.95;3.13;;;;;;;14.95;100.00;100854.84;5025802;28;20155;-71
2023/09/19 07:47:49;;;;;;;10.13;3.00;;;;;;;15.07;100.00;100854.97;5026329;28;20346;-70
2023/09/19 07:50:16;;;;;;;11.10;3.13;;;;;;;15.27;99.59;100867.84;5026178;28;20036;-69
2023/09/19 07:52:42;;;;;;;9.63;3.45;;;;;;;15.49;98.61;100871.69;5026423;28;20026;-70
2023/09/19 07:55:11;;;;;;;9.93;3.20;;;;;;;15.74;98.29;100876.19;5026911;28;20087;-69
2023/09/19 07:57:37;;;;;;;9.98;3.55;;;;;;;15.74;94.44;100870.81;5026699;28;20025;-70
2023/09/19 08:00:07;;;;;;;10.15;3.08;;;;;;;15.75;94.53;100865.34;5026894;28;20021;-70
2023/09/19 08:02:52;;;;;;;11.07;3.30;;;;;;;15.91;95.09;100887.41;5026445;28;20033;-70
2023/09/19 08:05:18;;;;;;;10.68;3.55;;;;;;;15.94;93.93;100878.28;5025592;28;20025;-70
2023/09/19 08:07:52;;;;;;;13.95;3.15;;;;;;;16.35;93.50;100880.63;5025763;28;20032;-70
2023/09/19 08:10:19;;;;;;;11.40;3.80;;;;;;;16.64;90.77;100864.16;5026691;28;20395;-71
2023/09/19 08:12:48;;;;;;;9.40;2.88;;;;;;;16.42;89.19;100876.47;5025708;28;20017;-70
2023/09/19 08:15:19;;;;;;;10.50;3.30;;;;;;;16.31;90.30;100875.59;5016923;28;20037;-71
2023/09/19 08:17:45;;;;;;;12.35;2.90;;;;;;;16.39;90.90;100870.50;5012946;28;20033;-70
2023/09/19 08:20:18;;;;;;;9.57;2.83;;;;;;;16.46;90.18;100876.25;5024299;28;20261;-68
2023/09/19 08:22:48;;;;;;;8.23;2.95;;;;;;;16.65;89.68;100880.13;5024327;28;20041;-70
2023/09/19 08:25:20;;;;;;;9.25;2.92;;;;;;;17.04;89.00;100864.66;5024054;28;20049;-71
2023/09/19 08:27:48;;;;;;;12.65;2.70;;;;;;;17.39;85.68;100883.41;5024684;28;20041;-69
2023/09/19 08:30:15;;;;;;;11.10;2.78;;;;;;;17.75;84.52;100873.41;4989758;28;20089;-69
2023/09/19 08:32:42;;;;;;;10.13;3.83;;;;;;;18.12;82.69;100876.66;5015938;28;20033;-68
2023/09/19 08:35:09;;;;;;;9.98;3.40;;;;;;;18.39;80.82;100869.97;5024377;28;20523;-69
2023/09/19 08:37:37;;;;;;;10.35;2.85;;;;;;;18.90;78.69;100872.84;5013066;28;20100;-70
2023/09/19 08:40:03;;;;;;;9.70;3.03;;;;;;;18.74;75.80;100871.59;5023547;28;20116;-70
2023/09/19 08:42:29;;;;;;;9.18;3.28;;;;;;;18.63;75.83;100864.38;5025395;28;20105;-70
2023/09/19 08:44:55;;;;;;;9.95;3.17;;;;;;;18.87;76.53;100883.03;5025003;28;20033;-70
2023/09/19 08:47:43;;;;;;;13.05;3.13;;;;;;;18.64;77.22;100874.16;5025093;28;20021;-71
2023/09/19 08:50:19;;;;;;;7.72;2.90;;;;;;;18.59;77.44;100879.09;5024216;28;20029;-71
2023/09/19 08:52:47;;;;;;;7.40;2.50;;;;;;;18.75;76.20;100868.75;5025463;28;20052;-70
2023/09/19 08:55:21;;;;;;;13.18;3.03;;;;;;;18.77;74.29;100874.88;5024842;28;20433;-69
2023/09/19 08:57:49;;;;;;;8.35;2.33;;;;;;;18.40;76.50;100874.41;5004212;28;20125;-69
2023/09/19 09:00:18;;;;;;;11.95;2.75;;;;;;;18.68;75.32;100872.91;5022319;28;20554;-71
2023/09/19 09:02:44;;;;;;;10.00;2.78;;;;;;;18.94;74.27;100870.75;5023953;28;20025;-71
2023/09/19 09:05:10;;;;;;;10.40;2.58;;;;;;;19.08;74.86;100875.81;5024718;28;20068;-70
2023/09/19 09:07:37;;;;;;;10.82;3.28;;;;;;;19.47;72.92;100883.28;5024450;28;20060;-69
2023/09/19 09:10:03;;;;;;;7.55;2.80;;;;;;;19.45;72.15;100882.56;5025152;28;20557;-70
2023/09/19 09:12:29;;;;;;;9.65;2.83;;;;;;;19.69;72.45;100875.03;5024245;28;20514;-70
2023/09/19 09:14:57;;;;;;;7.20;3.10;;;;;;;19.92;70.28;100874.81;5024786;28;20286;-70
2023/09/19 09:17:24;;;;;;;11.63;3.85;;;;;;;20.40;68.50;100875.78;5024139;28;20036;-70
2023/09/19 09:19:51;;;;;;;9.25;2.85;;;;;;;21.20;65.88;100865.66;5024448;28;20026;-70
2023/09/19 09:22:18;;;;;;;9.65;2.67;;;;;;;21.34;64.40;100864.34;5024103;28;20064;-70
2023/09/19 09:25:01;;;;;;;11.68;3.13;;;;;;;22.48;62.96;100878.47;5024053;28;20045;-71
2023/09/19 09:27:26;;;;;;;10.15;2.80;;;;;;;23.14;57.26;100869.06;5024508;28;20152;-70
2023/09/19 09:29:54;;;;;;;8.32;2.63;;;;;;;23.90;56.76;100866.44;5006474;28;20480;-70
2023/09/19 09:32:24;;;;;;;10.55;3.10;;;;;;;23.79;56.07;100883.06;5014746;28;20118;-71
2023/09/19 09:34:55;;;;;;;8.57;3.40;;;;;;;23.99;53.50;100881.75;5020087;28;20100;-69
2023/09/19 09:37:22;;;;;;;11.43;2.95;;;;;;;24.06;53.79;100871.09;5024626;28;20391;-70
2023/09/19 09:42:40;;;;;;;7.50;2.22;;;;;;;24.92;48.74;100869.91;5024284;28;20544;-70
2023/09/19 09:47:58;;;;;;;7.28;3.05;;;;;;;24.19;49.77;100893.22;5023179;28;20040;-70
2023/09/19 09:50:29;;;;;;;7.20;2.90;;;;;;;22.97;52.34;100873.50;4993297;28;20341;-71
2023/09/19 09:53:06;;;;;;;10.98;3.17;;;;;;;23.13;52.63;100870.94;5024366;28;20436;-71
2023/09/19 09:56:00;;;;;;;8.63;2.60;;;;;;;23.03;53.32;100871.03;5024391;28;20040;-71
2023/09/19 09:58:29;;;;;;;9.18;2.90;;;;;;;23.04;52.55;100856.44;5024282;28;20025;-70
2023/09/19 10:00:59;;;;;;;8.00;2.47;;;;;;;23.35;51.67;100859.53;5023535;28;20029;-70
2023/09/19 10:03:56;;;;;;;7.97;2.58;;;;;;;24.31;51.45;100878.28;5023570;28;20598;-70
2023/09/19 10:09:06;;;;;;;8.13;2.50;;;;;;;23.60;50.29;100871.38;5023663;28;20397;-70
2023/09/19 10:11:32;;;;;;;10.00;3.05;;;;;;;22.97;52.31;100870.81;5023720;28;20030;-70
2023/09/19 10:14:02;;;;;;;8.35;2.45;;;;;;;23.50;51.61;100857.06;5023191;28;20029;-70
2023/09/19 10:16:32;;;;;;;6.97;2.50;;;;;;;24.79;49.10;100857.66;5023053;28;20029;-71
2023/09/19 10:19:01;;;;;;;8.93;2.35;;;;;;;25.23;48.58;100851.00;5023101;28;20586;-70
2023/09/19 10:21:29;;;;;;;5.13;2.05;;;;;;;25.37;45.57;100854.88;5023134;28;20139;-71
2023/09/19 10:23:59;;;;;;;8.82;2.40;;;;;;;25.64;44.52;100854.47;5023288;28;20115;-71
2023/09/19 10:26:30;;;;;;;6.63;2.53;;;;;;;26.02;45.29;100858.25;5023317;28;20261;-70
2023/09/19 10:28:59;;;;;;;9.43;2.70;;;;;;;26.01;43.26;100845.63;5010235;28;20028;-71
2023/09/19 10:31:27;;;;;;;7.22;2.40;;;;;;;25.90;44.05;100842.44;5022829;28;20480;-70
2023/09/19 10:33:55;;;;;;;6.10;2.50;;;;;;;26.35;43.71;100851.75;5023341;28;20036;-70
2023/09/19 10:36:25;;;;;;;6.78;2.38;;;;;;;26.55;42.65;100845.66;5023306;28;20594;-71
2023/09/19 10:38:55;;;;;;;7.18;2.33;;;;;;;27.74;41.28;100856.81;5023251;28;20040;-69
2023/09/19 10:41:22;;;;;;;6.05;2.10;;;;;;;28.66;39.43;100853.50;5022924;28;20051;-72
2023/09/19 10:43:48;;;;;;;7.88;2.40;;;;;;;28.81;36.74;100862.50;5022555;28;20037;-72
2023/09/19 10:46:14;;;;;;;7.15;2.28;;;;;;;28.08;38.62;100867.16;5022803;28;20479;-69
2023/09/19 10:48:43;;;;;;;6.45;2.45;;;;;;;27.92;38.50;100862.75;5022731;28;20112;-70
2023/09/19 10:51:24;;;;;;;6.32;2.05;;;;;;;27.79;40.19;100859.84;5001513;28;20384;-69
2023/09/19 10:54:00;;;;;;;6.00;2.20;;;;;;;26.61;41.99;100862.34;5020363;28;20136;-69
2023/09/19 10:56:37;;;;;;;5.78;2.50;;;;;;;25.66;43.52;100860.56;5022689;28;20617;-71
2023/09/19 10:59:08;;;;;;;7.07;2.00;;;;;;;25.78;42.39;100855.63;5010920;28;20029;-71
2023/09/19 11:01:51;;;;;;;8.52;2.40;;;;;;;25.37;44.60;100847.53;5003819;28;20042;-70
2023/09/19 11:04:36;;;;;;;7.35;2.45;;;;;;;25.47;44.69;100852.81;5022517;28;20041;-70
2023/09/19 11:07:16;;;;;;;7.65;2.28;;;;;;;26.16;41.85;100851.16;4998102;28;20424;-71
2023/09/19 11:09:53;;;;;;;6.70;2.15;;;;;;;26.01;42.78;100842.06;5018634;28;20161;-70
2023/09/19 11:12:30;;;;;;;5.28;1.85;;;;;;;24.82;43.82;100835.50;5026374;28;20085;-70
2023/09/19 11:14:56;;;;;;;5.88;1.80;;;;;;;25.22;43.07;100827.50;5028863;28;20052;-71
2023/09/19 11:17:32;;;;;;;6.18;1.75;;;;;;;26.66;42.62;100825.25;5029184;28;20392;-70
2023/09/19 11:20:15;;;;;;;4.40;1.90;;;;;;;27.43;39.64;100832.41;5028954;28;20098;-69
2023/09/19 11:22:56;;;;;;;4.43;2.17;;;;;;;27.77;38.49;100821.75;5013519;28;20057;-71
2023/09/19 11:25:32;;;;;;;6.03;1.85;;;;;;;27.52;37.80;100823.06;5011196;28;20041;-70
2023/09/19 11:28:05;;;;;;;6.78;2.42;;;;;;;26.96;39.21;100818.00;5029049;28;20116;-70
2023/09/19 11:30:32;;;;;;;;;;;;;;;28.13;39.43;100807.22;5029584;28;20036;-70
2023/09/19 11:36:12;;;;;;;5.97;1.90;;;;;;;27.52;38.73;100817.59;5029346;28;20300;-70